Time;durP1;ratioP1;P1;durP2;ratioP2;P2;SDS_P1;SDS_P2;PMS_P1;PMS_P2;Temp;Humidity;BMP_temperature;BMP_pressure;BME280_temperature;BME280_humidity;BME280_pressure;Samples;Min_cycle;Max_cycle;Signal;HPM_P1;HPM_P2
2022/01/31 00:00:37;;;;;;;177.88;102.13;;;;;;;10.27;100.00;98333.34;4781727;29;20058;-64
2022/01/31 00:03:26;;;;;;;183.52;103.60;;;;;;;10.15;100.00;98331.97;4783040;29;20061;-64
2022/01/31 00:06:09;;;;;;;178.98;103.40;;;;;;;10.03;100.00;98319.53;4779696;29;20051;-65
2022/01/31 00:09:03;;;;;;;175.80;101.55;;;;;;;10.12;100.00;98301.22;4782116;29;20051;-64
2022/01/31 00:11:42;;;;;;;172.85;98.78;;;;;;;10.10;100.00;98315.84;4777381;29;20868;-64
2022/01/31 00:14:43;;;;;;;183.13;103.18;;;;;;;10.11;100.00;98330.41;4772820;29;20151;-64
2022/01/31 00:17:19;;;;;;;183.75;102.28;;;;;;;10.05;100.00;98325.47;4778692;29;20046;-63
2022/01/31 00:20:08;;;;;;;181.82;103.93;;;;;;;10.13;100.00;98343.22;4778533;29;20104;-64
2022/01/31 00:22:58;;;;;;;183.00;102.82;;;;;;;10.09;100.00;98342.47;4780887;29;20120;-65
2022/01/31 00:25:39;;;;;;;178.85;102.90;;;;;;;10.04;100.00;98349.53;4780297;29;20058;-64
2022/01/31 00:28:28;;;;;;;186.95;105.15;;;;;;;10.05;100.00;98356.34;4780283;29;20066;-65
2022/01/31 00:31:24;;;;;;;182.63;102.82;;;;;;;9.87;100.00;98351.81;4770176;29;20086;-64
2022/01/31 00:34:00;;;;;;;186.63;102.15;;;;;;;10.05;100.00;98350.38;4781653;29;20054;-65
2022/01/31 00:36:47;;;;;;;192.65;107.72;;;;;;;10.13;100.00;98359.53;4772154;30;20044;-64
2022/01/31 00:39:33;;;;;;;203.98;110.85;;;;;;;10.18;100.00;98360.22;4781091;29;20059;-64
2022/01/31 00:42:29;;;;;;;198.02;111.10;;;;;;;9.99;100.00;98353.97;4780038;29;20054;-65
2022/01/31 00:48:01;;;;;;;208.60;112.95;;;;;;;10.14;100.00;98345.72;4778758;29;20071;-65
2022/01/31 00:50:47;;;;;;;199.40;112.82;;;;;;;10.10;100.00;98351.88;4756880;30;20051;-64
2022/01/31 00:53:43;;;;;;;196.20;111.88;;;;;;;10.05;100.00;98360.66;4777842;29;20052;-64
2022/01/31 00:56:18;;;;;;;199.15;112.45;;;;;;;9.94;100.00;98354.13;4763769;29;20350;-64
2022/01/31 00:59:13;;;;;;;195.88;110.90;;;;;;;9.94;100.00;98363.56;4780395;29;20043;-64
2022/01/31 01:01:49;;;;;;;185.85;109.43;;;;;;;9.97;100.00;98350.63;4773727;30;20087;-64
2022/01/31 01:04:44;;;;;;;209.10;116.00;;;;;;;10.10;100.00;98341.59;4758110;30;20392;-64
2022/01/31 01:07:26;;;;;;;210.27;119.47;;;;;;;10.15;100.00;98346.56;4765107;29;20159;-64
2022/01/31 01:10:15;;;;;;;205.15;115.95;;;;;;;10.09;100.00;98342.47;4778811;29;20066;-64
2022/01/31 01:13:05;;;;;;;228.10;123.35;;;;;;;9.97;100.00;98342.91;4779153;29;20150;-64
2022/01/31 01:15:47;;;;;;;222.27;122.20;;;;;;;10.07;100.00;98364.00;4777320;29;20082;-64
2022/01/31 01:18:36;;;;;;;228.73;124.50;;;;;;;10.09;100.00;98357.06;4762361;30;20059;-65
2022/01/31 01:21:25;;;;;;;229.90;123.78;;;;;;;10.13;100.00;98359.53;4771640;30;20059;-64
2022/01/31 01:24:07;;;;;;;231.73;127.22;;;;;;;9.94;100.00;98358.44;4756959;30;20056;-64
2022/01/31 01:26:57;;;;;;;222.98;124.15;;;;;;;10.01;100.00;98365.06;4757211;30;20058;-64
2022/01/31 01:29:38;;;;;;;220.15;123.50;;;;;;;9.82;100.00;98375.09;4773430;30;20066;-65
2022/01/31 01:32:34;;;;;;;220.05;122.40;;;;;;;9.81;100.00;98381.16;4763875;29;20082;-64
2022/01/31 01:35:30;;;;;;;221.40;121.97;;;;;;;9.80;100.00;98388.91;4761738;29;20055;-64
2022/01/31 01:38:15;;;;;;;225.05;119.32;;;;;;;9.78;100.00;98406.13;4747066;30;20064;-64
2022/01/31 01:41:05;;;;;;;230.38;125.60;;;;;;;9.81;100.00;98400.88;4746691;30;20051;-64
2022/01/31 01:43:54;;;;;;;242.02;131.82;;;;;;;9.82;100.00;98395.66;4766652;29;20065;-64
2022/01/31 01:46:36;;;;;;;235.90;131.90;;;;;;;9.80;100.00;98386.34;4779486;29;20074;-64
2022/01/31 01:49:31;;;;;;;247.20;130.00;;;;;;;9.78;100.00;98393.25;4770012;29;20049;-64
2022/01/31 01:52:07;;;;;;;247.27;133.48;;;;;;;9.70;100.00;98392.66;4754635;30;20138;-64
2022/01/31 01:55:02;;;;;;;273.20;141.53;;;;;;;9.65;100.00;98397.09;4795406;29;20062;-64
2022/01/31 01:57:46;;;;;;;261.23;136.70;;;;;;;9.62;100.00;98399.75;4765530;30;20063;-64
2022/01/31 02:00:58;;;;;;;262.73;141.02;;;;;;;9.63;100.00;98401.44;4779279;29;20528;-65
2022/01/31 02:04:01;;;;;;;258.67;139.25;;;;;;;9.60;100.00;98400.66;4764511;30;20059;-65
2022/01/31 02:06:46;;;;;;;267.25;142.05;;;;;;;9.64;100.00;98400.56;4764072;29;20559;-65
2022/01/31 02:09:42;;;;;;;259.27;137.80;;;;;;;9.57;100.00;98399.91;4779751;29;20086;-65
2022/01/31 02:12:27;;;;;;;259.92;139.70;;;;;;;9.64;100.00;98400.56;4779530;29;20055;-65
2022/01/31 02:15:24;;;;;;;266.48;140.07;;;;;;;9.69;100.00;98411.53;4758811;29;20634;-65
2022/01/31 02:18:29;;;;;;;294.17;140.00;;;;;;;9.62;100.00;98417.75;4745016;30;20063;-64
2022/01/31 02:21:26;;;;;;;290.20;144.52;;;;;;;9.85;100.00;98431.59;4770547;29;20168;-64
2022/01/31 02:24:30;;;;;;;297.60;145.40;;;;;;;9.83;100.00;98432.53;4760094;29;20059;-65
2022/01/31 02:27:38;;;;;;;280.17;143.32;;;;;;;9.70;100.00;98436.38;4775235;29;20048;-63
2022/01/31 02:30:27;;;;;;;287.63;143.50;;;;;;;9.88;100.00;98436.66;4752989;30;20059;-65
2022/01/31 02:33:09;;;;;;;289.83;145.00;;;;;;;9.81;100.00;98444.63;4776624;29;20050;-65
2022/01/31 02:36:03;;;;;;;309.70;150.35;;;;;;;9.93;100.00;98451.94;4760277;30;20065;-66
2022/01/31 02:38:46;;;;;;;291.20;148.13;;;;;;;9.99;100.00;98451.75;4775121;29;20059;-66
2022/01/31 02:41:35;;;;;;;289.00;150.90;;;;;;;9.96;100.00;98459.56;4759918;30;20052;-65
2022/01/31 02:44:17;;;;;;;312.67;154.45;;;;;;;10.22;100.00;98475.06;4761042;30;20078;-66
2022/01/31 02:47:29;;;;;;;276.08;147.75;;;;;;;10.17;100.00;98469.22;4771538;30;20471;-65
2022/01/31 02:50:14;;;;;;;304.23;152.93;;;;;;;10.27;100.00;98475.75;4779218;29;20051;-65
2022/01/31 02:53:14;;;;;;;299.88;153.55;;;;;;;10.51;100.00;98481.00;4780277;29;20056;-65
2022/01/31 02:55:59;;;;;;;288.93;148.90;;;;;;;10.52;100.00;98491.25;4780136;29;20055;-65
2022/01/31 02:58:47;;;;;;;295.92;151.38;;;;;;;10.78;100.00;98492.94;4779720;29;20586;-65
2022/01/31 03:01:35;;;;;;;294.05;152.60;;;;;;;10.95;100.00;98505.25;4763063;29;20135;-65
2022/01/31 03:04:24;;;;;;;293.60;146.13;;;;;;;10.97;100.00;98509.47;4779744;29;20063;-66
2022/01/31 03:07:11;;;;;;;292.80;148.98;;;;;;;11.07;100.00;98505.69;4770422;29;20055;-65
2022/01/31 03:10:01;;;;;;;292.88;154.63;;;;;;;11.27;100.00;98511.88;4780600;29;20055;-65
2022/01/31 03:12:43;;;;;;;297.63;151.30;;;;;;;11.56;100.00;98513.41;4759338;30;20142;-65
2022/01/31 03:15:33;;;;;;;299.98;151.93;;;;;;;11.63;100.00;98520.88;4762790;30;20056;-65
2022/01/31 03:18:34;;;;;;;311.45;151.68;;;;;;;11.74;100.00;98529.06;4772691;29;20067;-64
2022/01/31 03:21:24;;;;;;;282.02;150.23;;;;;;;12.02;100.00;98528.03;4763690;29;20082;-65
2022/01/31 03:24:07;;;;;;;265.27;148.90;;;;;;;12.46;100.00;98534.88;4764142;29;20062;-65
2022/01/31 03:27:02;;;;;;;290.75;148.18;;;;;;;12.87;100.00;98545.28;4780556;29;20123;-65
2022/01/31 03:29:38;;;;;;;271.27;145.93;;;;;;;13.21;100.00;98540.41;4765329;30;20574;-65
2022/01/31 03:32:33;;;;;;;283.30;150.85;;;;;;;13.69;100.00;98531.41;4765229;29;23909;-65
2022/01/31 03:35:10;;;;;;;280.27;152.65;;;;;;;14.07;100.00;98545.19;4754293;30;20063;-65
2022/01/31 03:38:05;;;;;;;299.20;161.90;;;;;;;14.37;100.00;98541.16;4764091;30;20056;-65
2022/01/31 03:40:41;;;;;;;293.55;158.98;;;;;;;14.83;100.00;98551.94;4768985;30;20292;-65
2022/01/31 03:43:36;;;;;;;285.38;153.00;;;;;;;15.05;100.00;98559.50;4754394;30;20055;-65
2022/01/31 03:46:12;;;;;;;291.35;154.35;;;;;;;15.20;100.00;98574.28;4747431;30;20630;-65
2022/01/31 03:49:07;;;;;;;271.38;153.18;;;;;;;15.49;100.00;98581.41;4778128;30;20086;-66
2022/01/31 03:51:46;;;;;;;294.30;152.15;;;;;;;15.80;100.00;98587.69;4762562;30;20059;-65
2022/01/31 03:54:46;;;;;;;287.33;150.70;;;;;;;16.31;100.00;98592.66;4775382;29;20560;-65
2022/01/31 03:57:29;;;;;;;263.60;145.48;;;;;;;16.39;100.00;98590.47;4791536;29;20059;-65
2022/01/31 04:00:26;;;;;;;253.25;140.85;;;;;;;16.65;100.00;98590.84;4762842;29;20055;-65
2022/01/31 04:03:08;;;;;;;246.43;141.40;;;;;;;17.02;100.00;98608.63;4779625;29;20047;-66
2022/01/31 04:06:03;;;;;;;249.13;139.82;;;;;;;17.03;100.00;98605.09;4780615;29;20082;-66
2022/01/31 04:08:45;;;;;;;252.43;140.75;;;;;;;17.48;100.00;98604.19;4772140;29;20074;-66
2022/01/31 04:11:34;;;;;;;259.50;144.00;;;;;;;17.57;100.00;98605.41;4778398;29;20202;-66
2022/01/31 04:14:16;;;;;;;263.73;142.63;;;;;;;17.40;100.00;98603.78;4780784;29;20087;-65
2022/01/31 04:17:09;;;;;;;268.90;145.02;;;;;;;17.85;100.00;98617.66;4775402;29;20166;-65
2022/01/31 04:19:51;;;;;;;248.82;141.27;;;;;;;18.09;98.88;98610.94;4774615;29;20470;-65
2022/01/31 04:23:06;;;;;;;244.77;143.02;;;;;;;18.36;98.52;98613.59;4772164;30;20077;-64
2022/01/31 04:25:54;;;;;;;237.32;133.90;;;;;;;18.50;93.79;98617.97;4777520;29;20496;-66
2022/01/31 04:28:50;;;;;;;233.27;131.45;;;;;;;18.36;92.72;98630.09;4779746;29;20051;-66
2022/01/31 04:31:39;;;;;;;219.90;122.72;;;;;;;18.28;89.00;98626.28;4768637;29;20262;-66
2022/01/31 04:34:30;;;;;;;231.23;127.30;;;;;;;18.55;91.88;98624.56;4776196;30;20624;-66
2022/01/31 04:37:12;;;;;;;273.98;144.90;;;;;;;18.80;92.56;98633.47;4773400;29;20059;-67
2022/01/31 04:40:01;;;;;;;293.95;158.93;;;;;;;18.86;89.55;98630.44;4772636;30;20070;-65
2022/01/31 04:42:44;;;;;;;292.48;162.88;;;;;;;18.57;90.16;98646.22;4759238;30;20454;-65
2022/01/31 04:45:31;;;;;;;293.52;167.95;;;;;;;18.65;88.51;98645.72;4774314;29;20092;-65
2022/01/31 04:48:15;;;;;;;325.23;176.82;;;;;;;18.89;87.60;98635.50;4771776;29;20076;-64
2022/01/31 04:51:02;;;;;;;310.70;186.70;;;;;;;18.59;89.44;98652.19;4781562;29;20120;-65
2022/01/31 04:53:44;;;;;;;348.05;193.38;;;;;;;18.34;91.59;98652.00;4775733;29;20063;-64
2022/01/31 04:56:35;;;;;;;336.52;195.32;;;;;;;18.47;92.84;98663.34;4760952;30;20070;-66
2022/01/31 04:59:17;;;;;;;365.30;204.55;;;;;;;18.68;91.47;98659.41;4777027;29;20083;-66
2022/01/31 05:02:06;;;;;;;353.63;198.77;;;;;;;18.35;88.03;98659.72;4778561;30;20209;-66
2022/01/31 05:04:50;;;;;;;305.63;180.23;;;;;;;18.33;87.48;98663.34;4776634;30;20434;-67
2022/01/31 05:07:44;;;;;;;305.83;171.98;;;;;;;18.23;87.00;98651.81;4771490;29;20098;-66
2022/01/31 05:10:21;;;;;;;307.08;174.60;;;;;;;18.61;87.67;98650.28;4773788;29;20112;-66
2022/01/31 05:13:17;;;;;;;307.02;171.65;;;;;;;18.43;85.86;98666.25;4757590;29;20051;-66
2022/01/31 05:15:55;;;;;;;266.60;155.45;;;;;;;18.47;86.37;98673.78;4768663;30;20064;-66
2022/01/31 05:18:44;;;;;;;270.55;152.93;;;;;;;18.28;86.33;98662.78;4772263;29;20055;-66
2022/01/31 05:21:27;;;;;;;307.13;160.90;;;;;;;18.86;87.07;98664.38;4777432;29;20308;-66
2022/01/31 05:24:23;;;;;;;265.58;154.55;;;;;;;18.84;82.74;98671.47;4776130;29;20055;-66
2022/01/31 05:26:59;;;;;;;250.65;145.85;;;;;;;18.80;83.19;98665.63;4779473;30;20444;-65
2022/01/31 05:29:54;;;;;;;257.65;144.27;;;;;;;19.18;82.40;98665.75;4772292;29;20047;-66
2022/01/31 05:32:30;;;;;;;246.30;145.07;;;;;;;19.27;82.39;98665.16;4750975;29;20118;-66
2022/01/31 05:35:24;;;;;;;251.63;145.70;;;;;;;18.72;82.02;98663.50;4744054;29;20054;-66
2022/01/31 05:38:00;;;;;;;247.30;146.38;;;;;;;18.88;79.27;98659.91;4775805;29;20498;-66
2022/01/31 05:41:00;;;;;;;253.25;148.60;;;;;;;19.44;80.09;98656.22;4772619;29;20054;-66
2022/01/31 05:43:49;;;;;;;250.52;145.60;;;;;;;19.39;78.07;98656.53;4761972;30;20371;-67
2022/01/31 05:46:31;;;;;;;250.75;142.73;;;;;;;19.25;78.63;98651.34;4772506;29;20071;-66
2022/01/31 05:49:20;;;;;;;213.45;123.45;;;;;;;19.55;76.17;98642.47;4773163;29;20120;-67
2022/01/31 05:52:04;;;;;;;225.05;130.55;;;;;;;19.40;78.52;98639.06;4770485;30;20767;-67
2022/01/31 05:54:58;;;;;;;212.80;130.55;;;;;;;19.43;77.83;98634.47;4778291;29;20067;-66
2022/01/31 05:57:34;;;;;;;200.95;118.97;;;;;;;19.42;72.55;98643.25;4776981;29;20055;-66
2022/01/31 06:00:30;;;;;;;200.23;118.80;;;;;;;19.72;73.89;98639.53;4769790;29;20158;-66
2022/01/31 06:03:09;;;;;;;236.65;130.93;;;;;;;19.99;72.13;98637.66;4770664;30;20486;-67
2022/01/31 06:05:58;;;;;;;229.35;135.55;;;;;;;19.37;75.05;98621.81;4755383;29;20132;-67
2022/01/31 06:08:53;;;;;;;215.52;128.95;;;;;;;19.64;73.95;98618.31;4768248;29;20055;-67
2022/01/31 06:11:31;;;;;;;195.43;119.55;;;;;;;19.42;70.56;98609.28;4767999;30;20141;-66
2022/01/31 06:14:26;;;;;;;180.77;111.68;;;;;;;20.15;73.13;98614.72;4775451;29;20058;-67
2022/01/31 06:17:02;;;;;;;176.32;107.78;;;;;;;19.80;70.03;98609.31;4757886;29;20635;-68
2022/01/31 06:19:51;;;;;;;181.57;110.90;;;;;;;20.12;67.12;98601.84;4778943;29;20070;-71
2022/01/31 06:22:33;;;;;;;186.52;110.30;;;;;;;20.44;68.99;98597.00;4778457;29;20055;-69
2022/01/31 06:25:16;;;;;;;147.63;81.75;;;;;;;20.60;58.63;98581.84;4778504;29;20566;-68
2022/01/31 06:28:06;;;;;;;160.70;99.05;;;;;;;20.73;63.53;98571.34;4780367;29;20043;-68
2022/01/31 06:30:48;;;;;;;165.77;98.78;;;;;;;20.61;63.08;98569.59;4763466;30;20150;-68
2022/01/31 06:33:31;;;;;;;178.07;100.07;;;;;;;20.47;61.75;98572.38;4769537;30;20182;-69
2022/01/31 06:36:24;;;;;;;160.15;94.07;;;;;;;20.48;63.58;98566.22;4773684;29;20096;-69
2022/01/31 06:39:07;;;;;;;146.82;88.25;;;;;;;20.41;61.08;98564.97;4774732;29;20160;-68
2022/01/31 06:42:03;;;;;;;162.07;95.60;;;;;;;20.68;63.94;98552.50;4774137;29;20443;-70
2022/01/31 06:44:39;;;;;;;165.52;99.13;;;;;;;20.55;61.97;98556.97;4762564;30;20047;-68
2022/01/31 06:47:23;;;;;;;168.87;99.67;;;;;;;20.47;63.61;98554.91;4779508;29;20121;-69
2022/01/31 06:50:11;;;;;;;172.95;99.65;;;;;;;20.65;62.85;98552.75;4781078;29;20429;-67
2022/01/31 06:53:02;;;;;;;155.23;95.40;;;;;;;20.49;63.49;98541.72;4778027;29;20532;-67
2022/01/31 06:55:52;;;;;;;139.93;85.40;;;;;;;20.55;59.22;98547.34;4779056;29;20059;-67
2022/01/31 06:58:34;;;;;;;140.57;80.60;;;;;;;20.75;62.66;98538.03;4775744;29;20154;-68
2022/01/31 07:01:25;;;;;;;139.18;85.45;;;;;;;20.73;60.53;98542.53;4774012;29;20472;-66
2022/01/31 07:04:07;;;;;;;144.80;84.03;;;;;;;20.46;60.08;98549.78;4777606;29;20058;-66
2022/01/31 07:06:56;;;;;;;142.93;74.60;;;;;;;20.62;59.01;98542.47;4774846;29;20396;-66
2022/01/31 07:09:51;;;;;;;127.07;74.78;;;;;;;20.99;59.76;98546.66;4760550;30;20060;-67
2022/01/31 07:12:47;;;;;;;124.53;74.95;;;;;;;20.77;59.29;98543.97;4758922;30;20047;-68
2022/01/31 07:15:29;;;;;;;110.10;66.15;;;;;;;20.66;59.38;98564.06;4756314;30;20077;-69
2022/01/31 07:18:18;;;;;;;123.90;67.75;;;;;;;20.81;57.47;98555.06;4748538;30;20040;-69
2022/01/31 07:21:01;;;;;;;122.60;71.05;;;;;;;20.30;56.12;98557.03;4751398;30;20090;-69
2022/01/31 07:26:31;;;;;;;149.32;85.65;;;;;;;20.56;58.88;98537.69;4741209;30;20431;-68
2022/01/31 07:29:21;;;;;;;145.07;84.80;;;;;;;20.39;58.52;98535.47;4749257;30;20155;-69
2022/01/31 07:32:09;;;;;;;157.90;87.93;;;;;;;20.79;59.75;98533.38;4759850;30;20151;-70
2022/01/31 07:34:58;;;;;;;127.78;72.38;;;;;;;21.02;57.01;98545.59;4764891;30;20063;-69
2022/01/31 07:37:47;;;;;;;113.13;59.92;;;;;;;21.13;54.50;98536.94;4756800;30;20075;-71
2022/01/31 07:40:30;;;;;;;93.30;48.92;;;;;;;20.77;49.11;98541.34;4762373;30;20177;-68
2022/01/31 07:43:24;;;;;;;113.50;65.15;;;;;;;20.67;53.36;98529.06;4743750;30;20062;-70
2022/01/31 07:46:00;;;;;;;119.03;65.78;;;;;;;20.90;55.62;98510.72;4756453;30;20489;-69
2022/01/31 07:48:55;;;;;;;142.65;80.93;;;;;;;20.88;56.83;98502.13;4732100;30;20052;-68
2022/01/31 07:51:31;;;;;;;158.98;84.53;;;;;;;20.88;58.17;98496.88;4760405;30;20055;-67
2022/01/31 07:54:21;;;;;;;157.70;84.50;;;;;;;21.13;60.64;98495.03;4764741;30;20718;-68
2022/01/31 07:57:03;;;;;;;142.35;79.15;;;;;;;20.79;57.96;98491.50;4744026;30;20058;-68
2022/01/31 08:00:19;;;;;;;142.23;79.85;;;;;;;20.49;56.38;98482.34;4753499;30;20690;-68
2022/01/31 08:02:59;;;;;;;144.57;79.97;;;;;;;20.74;59.04;98484.00;4725104;30;20135;-70
2022/01/31 08:05:54;;;;;;;146.60;80.13;;;;;;;20.67;57.81;98474.94;4744539;30;20063;-70
2022/01/31 08:08:43;;;;;;;130.38;74.95;;;;;;;20.43;55.17;98481.97;4769392;29;20071;-69
2022/01/31 08:11:39;;;;;;;128.25;71.47;;;;;;;20.34;54.77;98488.72;4768359;29;20064;-70
2022/01/31 08:14:17;;;;;;;148.00;80.22;;;;;;;20.29;55.44;98482.94;4778125;29;20062;-70
2022/01/31 08:17:06;;;;;;;174.82;94.40;;;;;;;20.30;57.74;98468.91;4775206;30;20493;-70
2022/01/31 08:19:48;;;;;;;157.70;89.95;;;;;;;20.38;56.73;98465.75;4779883;30;20155;-71
2022/01/31 08:22:38;;;;;;;162.32;91.22;;;;;;;20.49;58.94;98468.44;4782434;29;20074;-69
2022/01/31 08:25:20;;;;;;;164.43;96.35;;;;;;;20.55;58.41;98462.72;4784942;29;20059;-69
2022/01/31 08:28:11;;;;;;;169.02;100.97;;;;;;;20.25;60.48;98457.94;4762504;30;20151;-64
2022/01/31 08:31:10;;;;;;;175.90;104.47;;;;;;;20.48;63.47;98448.44;4772327;29;20051;-64
2022/01/31 08:35:47;;;;;;;166.68;97.88;;;;;;;20.21;58.79;98448.63;4778689;29;20055;-70
2022/01/31 08:37:00;;;;;;;165.02;97.00;;;;;;;20.35;60.89;98450.31;4774600;29;20059;-68
2022/01/31 08:39:50;;;;;;;173.77;97.15;;;;;;;20.40;60.29;98442.94;4792000;29;20052;-68
2022/01/31 08:42:31;;;;;;;166.30;97.18;;;;;;;20.46;61.57;98435.47;4783347;29;20050;-69
2022/01/31 08:45:28;;;;;;;175.52;94.45;;;;;;;20.31;60.36;98433.94;4736789;30;20096;-70
2022/01/31 08:48:05;;;;;;;162.95;96.05;;;;;;;20.39;61.59;98428.19;4771915;30;20055;-68
2022/01/31 08:51:01;;;;;;;160.30;92.35;;;;;;;20.39;61.73;98426.41;4750232;30;20059;-70
2022/01/31 08:53:39;;;;;;;163.98;95.40;;;;;;;20.37;64.30;98417.81;4774897;29;20142;-70
2022/01/31 08:56:27;;;;;;;;;;;;;;;20.29;62.32;98424.53;4771720;29;20138;-70
2022/01/31 08:59:12;;;;;;;169.00;95.32;;;;;;;20.31;62.09;98426.09;4771487;29;19929;-69
2022/01/31 09:02:06;;;;;;;152.95;89.55;;;;;;;20.40;62.99;98429.84;4774953;29;20504;-71
2022/01/31 09:04:48;;;;;;;153.15;89.28;;;;;;;20.31;63.18;98433.09;4775956;29;20427;-69
2022/01/31 09:07:42;;;;;;;181.25;98.72;;;;;;;20.23;64.16;98426.66;4759414;30;20064;-70
2022/01/31 09:10:30;;;;;;;171.05;99.93;;;;;;;20.20;62.60;98424.25;4781680;29;20070;-70
2022/01/31 09:13:18;;;;;;;177.13;98.90;;;;;;;20.10;63.38;98435.53;4776398;29;20161;-70
2022/01/31 09:16:01;;;;;;;169.55;97.88;;;;;;;20.20;65.34;98424.25;4772283;29;20051;-71
2022/01/31 09:18:56;;;;;;;179.25;101.93;;;;;;;20.09;63.70;98439.91;4790971;29;20065;-77
2022/01/31 09:21:32;;;;;;;180.30;99.90;;;;;;;20.15;64.33;98434.22;4771083;29;20055;-75
2022/01/31 09:24:26;;;;;;;176.70;99.00;;;;;;;20.20;64.86;98436.50;4772318;29;20055;-76
2022/01/31 09:27:07;;;;;;;178.05;99.00;;;;;;;20.13;65.85;98425.66;4762147;29;20047;-76
2022/01/31 09:29:57;;;;;;;180.25;100.63;;;;;;;19.95;64.81;98426.19;4774934;29;20061;-75
2022/01/31 09:32:39;;;;;;;183.60;100.40;;;;;;;20.07;67.89;98410.41;4788368;29;20062;-76
2022/01/31 09:35:35;;;;;;;178.32;102.32;;;;;;;20.09;64.86;98398.06;4776823;29;20149;-75
2022/01/31 09:38:17;;;;;;;172.30;97.32;;;;;;;19.81;65.08;98391.38;4790511;29;20880;-75
2022/01/31 09:41:18;;;;;;;175.75;98.90;;;;;;;19.96;64.87;98399.06;4770721;29;20090;-76
2022/01/31 09:44:09;;;;;;;187.20;102.15;;;;;;;20.05;67.18;98387.94;4781557;29;20128;-76
2022/01/31 09:47:19;;;;;;;181.40;97.53;;;;;;;19.83;65.73;98402.56;4785749;29;20059;-75
2022/01/31 09:50:07;;;;;;;174.75;97.72;;;;;;;19.91;66.32;98393.34;4788135;29;20130;-76
2022/01/31 09:52:50;;;;;;;184.70;100.03;;;;;;;19.73;65.34;98395.50;4785393;29;20055;-75
2022/01/31 09:55:32;;;;;;;179.15;101.05;;;;;;;19.90;70.38;98391.66;4785208;29;20055;-76
2022/01/31 09:58:24;;;;;;;178.57;101.57;;;;;;;19.85;68.95;98384.16;4783247;29;20876;-75
2022/01/31 10:01:13;;;;;;;167.73;100.35;;;;;;;19.80;68.21;98383.66;4761196;29;20911;-75
2022/01/31 10:04:14;;;;;;;178.85;99.20;;;;;;;19.77;68.95;98391.72;4782430;29;20118;-75
2022/01/31 10:06:55;;;;;;;173.80;95.95;;;;;;;19.81;68.47;98387.94;4765593;29;20051;-76
2022/01/31 10:09:52;;;;;;;171.07;98.30;;;;;;;19.71;68.55;98395.63;4776155;29;20044;-76
2022/01/31 10:19:16;;;;;;;176.35;103.60;;;;;;;19.60;69.55;98394.72;4763899;29;20449;-66
2022/01/31 10:22:15;;;;;;;194.57;106.83;;;;;;;19.51;70.16;98382.28;4782373;29;20051;-72
2022/01/31 10:24:53;;;;;;;192.75;105.68;;;;;;;19.48;70.96;98372.88;4779745;29;20303;-69
2022/01/31 10:27:51;;;;;;;193.45;105.60;;;;;;;19.32;70.68;98370.50;4781496;29;20065;-68
2022/01/31 10:30:36;;;;;;;186.32;104.57;;;;;;;19.37;73.65;98368.41;4775687;29;20055;-68
2022/01/31 10:33:29;;;;;;;192.20;108.07;;;;;;;19.27;73.21;98370.00;4762183;29;20055;-68
2022/01/31 10:36:26;;;;;;;197.73;106.40;;;;;;;19.26;72.79;98377.94;4779558;29;21421;-69
2022/01/31 10:46:31;;;;;;;198.27;106.72;;;;;;;19.42;77.63;98371.53;4782177;29;20477;-68
2022/01/31 10:52:15;;;;;;;179.23;105.50;;;;;;;19.39;78.56;98370.91;4768428;29;20059;-67
2022/01/31 10:55:15;;;;;;;182.80;102.00;;;;;;;19.29;76.07;98375.94;4750490;30;20145;-66
2022/01/31 10:58:13;;;;;;;181.27;98.68;;;;;;;19.27;76.02;98363.94;4780116;29;20133;-67
2022/01/31 11:01:14;;;;;;;165.18;97.53;;;;;;;19.30;78.45;98358.50;4772684;29;20424;-66
2022/01/31 11:03:56;;;;;;;176.40;104.07;;;;;;;19.27;80.54;98361.31;4761975;30;20044;-69
2022/01/31 11:06:39;;;;;;;175.18;98.50;;;;;;;19.15;78.43;98370.88;4779352;29;20047;-70
2022/01/31 11:09:36;;;;;;;174.45;95.95;;;;;;;19.06;77.79;98371.50;4778207;29;20043;-70
2022/01/31 11:12:24;;;;;;;173.88;97.75;;;;;;;19.08;78.86;98366.97;4779713;29;20094;-68
2022/01/31 11:15:19;;;;;;;177.52;94.45;;;;;;;19.03;76.59;98375.16;4778637;29;20144;-68
2022/01/31 11:18:02;;;;;;;166.73;96.35;;;;;;;18.86;77.23;98369.41;4778499;29;20065;-69
2022/01/31 11:20:57;;;;;;;160.55;93.97;;;;;;;18.86;78.21;98375.47;4749897;30;20054;-68
2022/01/31 11:23:50;;;;;;;153.63;93.10;;;;;;;18.93;78.66;98375.88;4777666;29;20645;-69
2022/01/31 11:26:39;;;;;;;156.70;92.32;;;;;;;18.88;79.55;98380.59;4777586;29;20059;-68
2022/01/31 11:29:24;;;;;;;162.00;93.95;;;;;;;18.90;85.08;98379.56;4774596;29;20096;-68
2022/01/31 11:32:13;;;;;;;167.68;96.05;;;;;;;18.75;85.31;98374.56;4778845;29;20657;-68
2022/01/31 11:34:56;;;;;;;174.20;94.68;;;;;;;18.64;86.33;98377.88;4777241;29;20209;-70
2022/01/31 11:37:53;;;;;;;152.55;93.28;;;;;;;18.58;87.91;98375.69;4775756;29;20135;-67
2022/01/31 11:40:30;;;;;;;160.00;90.85;;;;;;;18.46;87.10;98384.28;4765836;29;20051;-70
2022/01/31 11:43:26;;;;;;;160.70;92.50;;;;;;;18.44;91.84;98391.41;4775166;29;20054;-68
2022/01/31 11:46:04;;;;;;;155.05;92.93;;;;;;;18.27;90.37;98384.69;4779044;29;20069;-67
2022/01/31 11:48:52;;;;;;;162.38;92.90;;;;;;;18.26;94.10;98383.03;4779111;29;20066;-67
2022/01/31 11:51:35;;;;;;;157.20;94.22;;;;;;;18.13;95.52;98376.91;4775981;29;20168;-66
2022/01/31 11:54:33;;;;;;;164.63;94.72;;;;;;;18.01;97.54;98375.97;4741758;30;20059;-69
2022/01/31 11:57:14;;;;;;;177.50;93.97;;;;;;;17.89;99.58;98374.97;4776917;29;20218;-70
2022/01/31 12:00:15;;;;;;;171.32;92.68;;;;;;;17.84;100.00;98377.06;4774644;29;20063;-69
2022/01/31 12:02:53;;;;;;;177.13;95.18;;;;;;;17.75;100.00;98372.44;4780064;29;20130;-69
2022/01/31 12:05:49;;;;;;;174.27;93.60;;;;;;;17.67;100.00;98374.69;4752164;29;20058;-68
2022/01/31 12:08:37;;;;;;;177.65;95.53;;;;;;;17.52;100.00;98376.47;4764522;29;20157;-69
2022/01/31 12:11:29;;;;;;;167.60;95.00;;;;;;;17.39;100.00;98370.38;4777930;29;20067;-67
2022/01/31 12:14:13;;;;;;;160.82;93.82;;;;;;;17.33;100.00;98377.69;4776583;29;20867;-67
2022/01/31 12:17:21;;;;;;;170.35;90.97;;;;;;;17.28;100.00;98374.56;4779955;29;20373;-67
2022/01/31 12:20:14;;;;;;;177.20;95.05;;;;;;;17.06;100.00;98388.06;4778472;29;20112;-65
2022/01/31 12:23:02;;;;;;;183.85;95.28;;;;;;;17.01;100.00;98393.53;4774639;30;20056;-65
2022/01/31 12:25:44;;;;;;;172.13;96.90;;;;;;;16.88;100.00;98390.00;4765749;29;20078;-67
2022/01/31 12:28:48;;;;;;;171.70;99.00;;;;;;;16.79;100.00;98395.75;4776763;29;20061;-66
2022/01/31 12:31:30;;;;;;;166.95;97.80;;;;;;;16.73;100.00;98404.78;4774778;30;20055;-68
2022/01/31 12:34:27;;;;;;;173.98;97.60;;;;;;;16.64;100.00;98391.47;4778010;29;20054;-66
2022/01/31 12:37:16;;;;;;;175.32;97.20;;;;;;;16.51;100.00;98401.75;4776357;29;20092;-66
2022/01/31 12:40:27;;;;;;;170.32;99.35;;;;;;;16.44;100.00;98397.81;4777103;29;20162;-66
2022/01/31 12:43:51;;;;;;;181.38;99.05;;;;;;;16.38;100.00;98392.97;4780165;29;20051;-68
2022/01/31 12:46:32;;;;;;;186.23;98.57;;;;;;;16.23;100.00;98388.66;4772139;30;20055;-69
2022/01/31 12:49:20;;;;;;;172.43;98.40;;;;;;;16.12;100.00;98388.44;4762101;29;20055;-68
2022/01/31 12:52:10;;;;;;;183.23;101.40;;;;;;;16.13;100.00;98390.94;4776656;29;20055;-69
2022/01/31 12:54:59;;;;;;;164.15;97.85;;;;;;;16.00;100.00;98389.97;4771175;30;20059;-68
2022/01/31 12:57:54;;;;;;;168.63;97.10;;;;;;;15.98;100.00;98397.00;4772165;29;20051;-67
2022/01/31 13:00:46;;;;;;;178.05;100.38;;;;;;;15.83;100.00;98395.25;4775726;30;20055;-67